Time;durP1;ratioP1;P1;durP2;ratioP2;P2;SDS_P1;SDS_P2;PMS_P1;PMS_P2;Temp;Humidity;BMP_temperature;BMP_pressure;BME280_temperature;BME280_humidity;BME280_pressure;Samples;Min_cycle;Max_cycle;Signal;HPM_P1;HPM_P2
2023/04/18 00:01:49;;;;;;;16.30;11.20;;;6.00;99.90;;;;;;5033592;28;20089;-73
2023/04/18 00:04:16;;;;;;;18.87;11.67;;;6.00;99.90;;;;;;5045165;28;20661;-73
2023/04/18 00:06:42;;;;;;;19.30;11.82;;;5.90;99.90;;;;;;5040728;28;20104;-73
2023/04/18 00:09:08;;;;;;;15.93;11.77;;;5.90;99.90;;;;;;5032815;28;20049;-73
2023/04/18 00:11:33;;;;;;;16.60;11.70;;;5.80;99.90;;;;;;5049098;28;20102;-73
2023/04/18 00:13:59;;;;;;;20.50;11.10;;;5.80;99.90;;;;;;5044412;28;20046;-73
2023/04/18 00:16:27;;;;;;;18.10;12.57;;;5.70;99.90;;;;;;5026591;28;20051;-74
2023/04/18 00:18:53;;;;;;;16.85;11.75;;;5.70;99.90;;;;;;5019067;28;20047;-73
2023/04/18 00:21:18;;;;;;;20.08;12.20;;;5.60;99.90;;;;;;5032751;28;20037;-73
2023/04/18 00:23:45;;;;;;;15.40;12.10;;;5.50;99.90;;;;;;5029373;28;20041;-73
2023/04/18 00:26:10;;;;;;;18.08;12.25;;;5.40;99.90;;;;;;5041550;28;20128;-73
2023/04/18 00:28:36;;;;;;;15.27;11.33;;;5.40;99.90;;;;;;5042458;28;20171;-74
2023/04/18 00:31:02;;;;;;;17.70;11.40;;;5.40;99.90;;;;;;5030124;28;20295;-74
2023/04/18 00:33:28;;;;;;;15.27;11.83;;;5.30;99.90;;;;;;5032846;28;20497;-74
2023/04/18 00:35:53;;;;;;;18.63;12.03;;;5.30;99.90;;;;;;5038587;28;20128;-74
2023/04/18 00:38:19;;;;;;;17.57;11.43;;;5.30;99.90;;;;;;5027130;28;20071;-73
2023/04/18 00:40:45;;;;;;;19.80;11.83;;;5.40;99.90;;;;;;5047418;28;20216;-73
2023/04/18 00:43:14;;;;;;;21.57;12.30;;;5.40;99.90;;;;;;5038671;28;20040;-73
2023/04/18 00:45:40;;;;;;;17.92;12.00;;;5.40;99.90;;;;;;5022936;28;20052;-73
2023/04/18 00:48:05;;;;;;;17.90;12.17;;;5.40;99.90;;;;;;5035242;28;20045;-73
2023/04/18 00:50:31;;;;;;;17.90;11.50;;;5.40;99.90;;;;;;5041763;28;20045;-73
2023/04/18 00:52:57;;;;;;;18.07;12.57;;;5.50;99.90;;;;;;5040456;28;20540;-73
2023/04/18 00:55:23;;;;;;;19.53;11.60;;;5.60;99.90;;;;;;5030273;28;20040;-73
2023/04/18 00:57:50;;;;;;;17.42;11.90;;;5.70;99.90;;;;;;5043929;28;20128;-73
2023/04/18 01:00:15;;;;;;;19.00;11.90;;;5.90;99.90;;;;;;5032185;28;20516;-73
2023/04/18 01:02:41;;;;;;;23.30;12.57;;;6.00;99.90;;;;;;5032267;28;20072;-73
2023/04/18 01:05:07;;;;;;;18.13;10.90;;;6.10;99.90;;;;;;5032433;28;20049;-74
2023/04/18 01:07:36;;;;;;;16.35;11.32;;;6.20;99.90;;;;;;5025066;28;20541;-74
2023/04/18 01:10:03;;;;;;;17.83;12.00;;;6.20;99.90;;;;;;5023701;28;20044;-73
2023/04/18 01:12:29;;;;;;;17.00;11.48;;;6.30;99.90;;;;;;5047903;28;20029;-73
2023/04/18 01:14:55;;;;;;;17.30;11.10;;;6.30;99.90;;;;;;5038179;28;20393;-74
2023/04/18 01:17:22;;;;;;;17.93;11.50;;;6.30;99.90;;;;;;5023612;28;20045;-73
2023/04/18 01:19:48;;;;;;;17.20;12.35;;;6.30;99.90;;;;;;5024200;28;20316;-73
2023/04/18 01:22:14;;;;;;;18.77;12.00;;;6.20;99.90;;;;;;5030859;28;20049;-73
2023/04/18 01:24:40;;;;;;;16.23;11.25;;;6.20;99.90;;;;;;5031432;28;20520;-73
2023/04/18 01:27:10;;;;;;;17.25;11.15;;;6.10;99.90;;;;;;5046495;28;20037;-73
2023/04/18 01:29:35;;;;;;;19.40;11.70;;;6.10;99.90;;;;;;5039347;28;20053;-73
2023/04/18 01:32:01;;;;;;;17.43;10.60;;;6.10;99.90;;;;;;5046938;28;20045;-73
2023/04/18 01:34:27;;;;;;;16.03;10.40;;;6.10;99.90;;;;;;5047669;28;20063;-73
2023/04/18 01:36:52;;;;;;;15.13;10.57;;;6.10;99.90;;;;;;5037346;28;20079;-73
2023/04/18 01:39:18;;;;;;;16.10;9.90;;;6.10;99.90;;;;;;5027826;28;20053;-73
2023/04/18 01:41:44;;;;;;;14.97;10.40;;;6.10;99.90;;;;;;5031478;28;20386;-73
2023/04/18 01:44:10;;;;;;;15.37;9.77;;;6.10;99.90;;;;;;5023389;28;20428;-73
2023/04/18 01:46:36;;;;;;;14.70;9.40;;;6.10;99.90;;;;;;5025589;28;20166;-73
2023/04/18 01:49:02;;;;;;;16.77;9.33;;;6.10;99.90;;;;;;5040279;28;20037;-73
2023/04/18 01:51:27;;;;;;;15.38;9.55;;;6.20;99.90;;;;;;5030191;28;20094;-73
2023/04/18 01:53:53;;;;;;;13.73;9.07;;;6.20;99.90;;;;;;5026440;28;20037;-73
2023/04/18 01:56:19;;;;;;;11.27;8.57;;;6.20;99.90;;;;;;5030480;28;20037;-73
2023/04/18 01:58:45;;;;;;;14.32;9.07;;;6.20;99.90;;;;;;5018902;28;20041;-73
2023/04/18 02:01:11;;;;;;;14.03;8.80;;;6.20;99.90;;;;;;5047775;28;20539;-73
2023/04/18 02:03:37;;;;;;;17.20;9.43;;;6.10;99.90;;;;;;5029158;28;20090;-74
2023/04/18 02:06:04;;;;;;;14.57;8.83;;;6.10;99.90;;;;;;5033595;28;20041;-74
2023/04/18 02:08:31;;;;;;;15.98;9.18;;;6.10;99.90;;;;;;5047836;28;20041;-73
2023/04/18 02:10:58;;;;;;;11.32;8.75;;;6.00;99.90;;;;;;5028709;28;20045;-73
2023/04/18 02:13:24;;;;;;;17.63;9.18;;;6.10;99.90;;;;;;5047907;28;20045;-73
2023/04/18 02:15:49;;;;;;;12.03;8.17;;;6.10;99.90;;;;;;5043618;28;20044;-73
2023/04/18 02:18:16;;;;;;;13.50;8.67;;;6.10;99.90;;;;;;5035210;28;20382;-73
2023/04/18 02:20:42;;;;;;;13.43;8.68;;;6.10;99.90;;;;;;5035145;28;20052;-73
2023/04/18 02:23:07;;;;;;;13.67;9.37;;;6.00;99.90;;;;;;5030928;28;20114;-73
2023/04/18 02:25:33;;;;;;;14.27;9.90;;;5.90;99.90;;;;;;5045728;28;20115;-73
2023/04/18 02:27:59;;;;;;;13.27;8.87;;;5.90;99.90;;;;;;5046028;28;20044;-73
2023/04/18 02:30:25;;;;;;;13.77;9.00;;;5.90;99.90;;;;;;5026983;28;20131;-73
2023/04/18 02:32:58;;;;;;;14.07;8.43;;;5.90;99.90;;;;;;5045488;28;20059;-73
2023/04/18 02:35:24;;;;;;;14.48;8.90;;;5.90;99.90;;;;;;5041563;28;20051;-73
2023/04/18 02:37:51;;;;;;;13.68;8.63;;;6.00;99.90;;;;;;5043247;28;20053;-73
2023/04/18 02:40:17;;;;;;;12.13;8.82;;;6.00;99.90;;;;;;5031023;28;20037;-73
2023/04/18 02:42:43;;;;;;;11.20;8.02;;;5.90;99.90;;;;;;5045152;28;20465;-73
2023/04/18 02:45:09;;;;;;;13.37;8.27;;;5.90;99.90;;;;;;5030364;28;20112;-73
2023/04/18 02:47:35;;;;;;;12.27;8.50;;;5.90;99.90;;;;;;5030185;28;20284;-73
2023/04/18 02:50:02;;;;;;;14.27;8.13;;;5.70;99.90;;;;;;5036053;28;20404;-73
2023/04/18 02:52:28;;;;;;;17.10;8.30;;;5.70;99.90;;;;;;5027450;28;20044;-73
2023/04/18 02:54:54;;;;;;;11.33;7.83;;;5.70;99.90;;;;;;5030870;28;20521;-73
2023/04/18 02:57:20;;;;;;;12.00;7.50;;;5.70;99.90;;;;;;5030886;28;20040;-73
2023/04/18 02:59:46;;;;;;;12.93;7.93;;;5.70;99.90;;;;;;5039194;28;20040;-73
2023/04/18 03:02:11;;;;;;;11.90;7.33;;;5.60;99.90;;;;;;5027496;28;20067;-73
2023/04/18 03:04:37;;;;;;;11.73;7.50;;;5.60;99.90;;;;;;5041142;28;20060;-73
2023/04/18 03:07:03;;;;;;;10.83;7.57;;;5.60;99.90;;;;;;5045817;28;20500;-73
2023/04/18 03:09:28;;;;;;;11.77;7.03;;;5.50;99.90;;;;;;5034372;28;20095;-73
2023/04/18 03:11:54;;;;;;;10.20;7.13;;;5.50;99.90;;;;;;5045057;28;20048;-73
2023/04/18 03:14:20;;;;;;;11.53;6.97;;;5.50;99.90;;;;;;5018949;28;20151;-73
2023/04/18 03:16:45;;;;;;;10.57;6.83;;;5.50;99.90;;;;;;5018175;28;20390;-73
2023/04/18 03:19:11;;;;;;;10.87;6.87;;;5.50;99.90;;;;;;5032359;28;20095;-73
2023/04/18 03:21:37;;;;;;;10.07;7.10;;;5.60;99.90;;;;;;5033513;28;20037;-73
2023/04/18 03:24:03;;;;;;;9.43;6.47;;;5.60;99.90;;;;;;5031446;28;20107;-73
2023/04/18 03:26:28;;;;;;;8.70;6.20;;;5.70;99.90;;;;;;5028360;28;20041;-73
2023/04/18 03:28:54;;;;;;;9.80;6.87;;;5.70;99.90;;;;;;5033499;28;20037;-73
2023/04/18 03:31:20;;;;;;;10.93;6.53;;;5.70;99.90;;;;;;5029418;28;20110;-73
2023/04/18 03:33:46;;;;;;;9.80;6.80;;;5.70;99.90;;;;;;5044161;28;20049;-73
2023/04/18 03:36:16;;;;;;;9.63;6.22;;;5.70;99.90;;;;;;5024608;28;20033;-73
2023/04/18 03:38:41;;;;;;;8.80;5.70;;;5.70;99.90;;;;;;5029903;28;20186;-74
2023/04/18 03:41:07;;;;;;;11.03;6.47;;;5.70;99.90;;;;;;5041184;28;20128;-73
2023/04/18 03:43:33;;;;;;;9.60;6.53;;;5.80;99.90;;;;;;5048783;28;20048;-73
2023/04/18 03:45:59;;;;;;;10.40;6.37;;;5.80;99.90;;;;;;5029723;28;20025;-73
2023/04/18 03:48:25;;;;;;;12.77;6.50;;;5.90;99.90;;;;;;5033811;28;20102;-73
2023/04/18 03:50:50;;;;;;;10.03;6.30;;;5.90;99.90;;;;;;5045248;28;20044;-73
2023/04/18 03:53:16;;;;;;;10.47;6.30;;;5.90;99.90;;;;;;5050586;28;20056;-73
2023/04/18 03:55:42;;;;;;;8.60;6.10;;;6.00;99.90;;;;;;5032097;28;20200;-74
2023/04/18 03:58:08;;;;;;;8.67;5.80;;;6.00;99.90;;;;;;5034102;28;20123;-74
2023/04/18 04:00:34;;;;;;;9.80;5.82;;;6.10;99.90;;;;;;5031378;28;20037;-74
2023/04/18 04:03:00;;;;;;;10.87;7.20;;;6.10;99.90;;;;;;5045816;28;20047;-74
2023/04/18 04:05:26;;;;;;;8.70;6.07;;;6.10;99.90;;;;;;5046067;28;20029;-74
2023/04/18 04:07:52;;;;;;;8.63;6.30;;;6.10;99.90;;;;;;5041049;28;20037;-74
2023/04/18 04:10:17;;;;;;;9.03;6.10;;;6.10;99.90;;;;;;5039126;28;20792;-74
2023/04/18 04:12:43;;;;;;;9.50;6.03;;;6.20;99.90;;;;;;5047231;28;20043;-74
2023/04/18 04:15:10;;;;;;;9.50;6.47;;;6.20;99.90;;;;;;5049674;28;20683;-74
2023/04/18 04:17:35;;;;;;;9.52;5.70;;;6.20;99.90;;;;;;5039925;28;20041;-73
2023/04/18 04:20:01;;;;;;;8.67;5.93;;;6.20;99.90;;;;;;5047905;28;20107;-73
2023/04/18 04:22:27;;;;;;;7.97;5.87;;;6.20;99.90;;;;;;5030581;28;20195;-73
2023/04/18 04:24:52;;;;;;;7.47;5.40;;;6.20;99.90;;;;;;5033062;28;20544;-73
2023/04/18 04:27:19;;;;;;;8.73;6.17;;;6.20;99.90;;;;;;5031957;28;20057;-74
2023/04/18 04:29:45;;;;;;;8.40;5.47;;;6.20;99.90;;;;;;5039191;28;20451;-74
2023/04/18 04:32:11;;;;;;;9.50;6.20;;;6.30;99.90;;;;;;5037636;28;20049;-74
2023/04/18 04:34:40;;;;;;;8.13;5.32;;;6.30;99.90;;;;;;5027007;28;20041;-74
2023/04/18 04:37:06;;;;;;;7.60;5.82;;;6.40;99.90;;;;;;5048766;28;20047;-74
2023/04/18 04:39:32;;;;;;;9.98;6.22;;;6.30;99.90;;;;;;5031185;28;20068;-74
2023/04/18 04:42:00;;;;;;;9.37;6.07;;;6.40;99.90;;;;;;5023710;28;20068;-73
2023/04/18 04:44:25;;;;;;;8.98;5.65;;;6.40;99.90;;;;;;5031160;28;20037;-73
2023/04/18 04:46:53;;;;;;;9.13;6.10;;;6.40;99.90;;;;;;5047029;28;20041;-73
2023/04/18 04:49:18;;;;;;;9.43;6.05;;;6.50;99.90;;;;;;5026076;28;20038;-73
2023/04/18 04:51:44;;;;;;;8.77;5.43;;;6.50;99.90;;;;;;5032062;28;20041;-73
2023/04/18 04:54:10;;;;;;;10.33;6.33;;;6.50;99.90;;;;;;5036501;28;20052;-73
2023/04/18 04:56:36;;;;;;;8.83;5.83;;;6.60;99.90;;;;;;5038562;28;20038;-73
2023/04/18 04:59:01;;;;;;;9.63;6.00;;;6.60;99.90;;;;;;5030528;28;20489;-73
2023/04/18 05:01:27;;;;;;;7.70;5.70;;;6.70;99.90;;;;;;5032256;28;20048;-73
2023/04/18 05:03:53;;;;;;;9.20;5.70;;;6.70;99.90;;;;;;5041837;28;20052;-73
2023/04/18 05:06:22;;;;;;;10.07;6.40;;;6.70;99.90;;;;;;5031398;28;20091;-74
2023/04/18 05:08:49;;;;;;;9.88;5.63;;;6.70;99.90;;;;;;5032864;28;20041;-74
2023/04/18 05:11:18;;;;;;;11.90;6.90;;;6.80;99.90;;;;;;5041524;28;20037;-74
2023/04/18 05:13:44;;;;;;;8.90;6.18;;;6.90;99.90;;;;;;5048277;28;20041;-74
2023/04/18 05:16:10;;;;;;;9.93;6.47;;;7.00;99.90;;;;;;5049243;28;20071;-74
2023/04/18 05:18:40;;;;;;;10.02;6.40;;;7.00;99.90;;;;;;5033115;28;20049;-74
2023/04/18 05:21:05;;;;;;;8.90;5.97;;;7.00;99.90;;;;;;5018451;28;20048;-74
2023/04/18 05:23:35;;;;;;;9.87;6.57;;;7.00;99.90;;;;;;5038939;28;20049;-74
2023/04/18 05:26:05;;;;;;;12.45;6.90;;;7.10;99.90;;;;;;5049249;28;20631;-74
2023/04/18 05:28:31;;;;;;;12.95;6.78;;;7.10;99.90;;;;;;5042875;28;20041;-74
2023/04/18 05:31:00;;;;;;;9.55;7.20;;;7.10;99.90;;;;;;5038446;28;20032;-74
2023/04/18 05:33:30;;;;;;;8.30;6.47;;;7.20;99.90;;;;;;5029400;28;20120;-74
2023/04/18 05:35:56;;;;;;;9.63;6.13;;;7.20;99.90;;;;;;5038518;28;20045;-74
2023/04/18 05:38:22;;;;;;;10.30;6.95;;;7.30;99.90;;;;;;5047168;28;20068;-73
2023/04/18 05:40:50;;;;;;;8.70;6.37;;;7.20;99.90;;;;;;5041665;28;20077;-74
2023/04/18 05:43:19;;;;;;;13.40;6.93;;;7.30;99.90;;;;;;5040733;28;20116;-74
2023/04/18 05:45:45;;;;;;;11.32;7.07;;;7.30;99.90;;;;;;5048768;28;20045;-74
2023/04/18 05:48:11;;;;;;;9.53;6.90;;;7.40;99.90;;;;;;5026511;28;20033;-74
2023/04/18 05:50:37;;;;;;;9.75;7.00;;;7.40;99.90;;;;;;5045776;28;20393;-74
2023/04/18 05:53:02;;;;;;;10.23;7.83;;;7.50;99.90;;;;;;5024721;28;20041;-74
2023/04/18 05:55:28;;;;;;;10.87;7.33;;;7.40;99.90;;;;;;5021843;28;20462;-74
2023/04/18 05:57:54;;;;;;;12.20;7.83;;;7.50;99.90;;;;;;5040772;28;20041;-75
2023/04/18 06:00:19;;;;;;;11.07;7.93;;;7.50;99.90;;;;;;5029400;28;20041;-74
2023/04/18 06:02:45;;;;;;;11.90;7.80;;;7.60;99.90;;;;;;5023080;28;20033;-74
2023/04/18 06:05:12;;;;;;;10.63;8.00;;;7.70;99.90;;;;;;5039680;28;20098;-74
2023/04/18 06:07:38;;;;;;;10.82;7.90;;;7.60;99.90;;;;;;5025974;28;20108;-74
2023/04/18 06:10:07;;;;;;;10.73;7.80;;;7.60;99.90;;;;;;5029542;28;20122;-74
2023/04/18 06:12:33;;;;;;;11.20;7.82;;;7.70;99.90;;;;;;5039608;28;20288;-73
2023/04/18 06:14:59;;;;;;;11.97;8.53;;;7.70;99.90;;;;;;5042123;28;20043;-74
2023/04/18 06:17:25;;;;;;;11.67;7.87;;;7.70;99.90;;;;;;5030945;28;20048;-74
2023/04/18 06:19:50;;;;;;;12.67;8.40;;;7.70;99.90;;;;;;5025031;28;20044;-74
2023/04/18 06:22:16;;;;;;;12.80;8.37;;;7.80;99.90;;;;;;5041324;28;20077;-74
2023/04/18 06:24:42;;;;;;;11.27;7.67;;;7.90;99.90;;;;;;5046683;28;20041;-74
2023/04/18 06:27:08;;;;;;;16.77;9.57;;;7.90;99.90;;;;;;5043076;28;20037;-74
2023/04/18 06:29:34;;;;;;;13.37;8.60;;;8.10;99.90;;;;;;5024307;28;20493;-74
2023/04/18 06:31:59;;;;;;;11.52;7.88;;;8.20;99.90;;;;;;5019784;28;20041;-74
2023/04/18 06:34:25;;;;;;;14.20;8.20;;;8.40;99.90;;;;;;5038095;28;20051;-74
2023/04/18 06:36:51;;;;;;;13.47;8.47;;;8.60;99.90;;;;;;5045265;28;20044;-74
2023/04/18 06:39:17;;;;;;;10.50;8.52;;;8.70;99.90;;;;;;5042300;28;20087;-74
2023/04/18 06:41:43;;;;;;;12.70;8.10;;;8.80;99.90;;;;;;5025667;28;20548;-74
2023/04/18 06:44:08;;;;;;;12.80;9.80;;;8.80;99.90;;;;;;5040643;28;20041;-74
2023/04/18 06:46:34;;;;;;;15.57;8.80;;;8.70;99.90;;;;;;5048442;28;20045;-74
2023/04/18 06:49:00;;;;;;;12.47;8.53;;;8.70;99.90;;;;;;5032192;28;20083;-74
2023/04/18 06:51:26;;;;;;;13.83;9.07;;;8.50;99.90;;;;;;5030309;28;20128;-75
2023/04/18 06:53:52;;;;;;;11.17;8.07;;;8.50;99.90;;;;;;5031168;28;20045;-74
2023/04/18 06:56:21;;;;;;;13.85;8.25;;;8.50;99.90;;;;;;5034838;28;20776;-74
2023/04/18 06:58:48;;;;;;;12.57;8.63;;;8.50;99.90;;;;;;5019876;28;20046;-75
2023/04/18 07:01:14;;;;;;;14.77;9.13;;;8.50;99.90;;;;;;5030439;28;20041;-75
2023/04/18 07:03:40;;;;;;;12.88;8.63;;;8.50;99.90;;;;;;5025915;28;20037;-74
2023/04/18 07:06:07;;;;;;;13.40;8.73;;;8.40;99.90;;;;;;5044886;28;20037;-74
2023/04/18 07:08:34;;;;;;;14.00;9.15;;;8.40;99.90;;;;;;5045272;28;20045;-74
2023/04/18 07:10:59;;;;;;;14.32;8.55;;;8.40;99.90;;;;;;5038142;28;20048;-75
2023/04/18 07:13:25;;;;;;;12.23;8.23;;;8.30;99.90;;;;;;5047517;28;20040;-74
2023/04/18 07:15:51;;;;;;;15.63;9.27;;;8.40;99.90;;;;;;5025180;28;20033;-74
2023/04/18 07:18:17;;;;;;;13.30;8.40;;;8.50;99.90;;;;;;5044669;28;20067;-75
2023/04/18 07:20:42;;;;;;;11.57;7.77;;;8.60;99.90;;;;;;5042231;28;20038;-74
2023/04/18 07:23:09;;;;;;;11.23;8.07;;;8.70;98.40;;;;;;5032820;28;20060;-74
2023/04/18 07:25:35;;;;;;;11.30;8.00;;;8.80;94.90;;;;;;5050907;28;20044;-74
2023/04/18 07:28:01;;;;;;;12.30;7.85;;;8.90;94.20;;;;;;5029082;28;20591;-74
2023/04/18 07:30:27;;;;;;;12.73;8.17;;;9.00;92.00;;;;;;5028396;28;20092;-74
2023/04/18 07:32:53;;;;;;;12.80;7.70;;;9.00;89.90;;;;;;5047132;28;20076;-74
2023/04/18 07:35:19;;;;;;;9.70;7.15;;;9.00;86.90;;;;;;5034257;28;20553;-75
2023/04/18 07:37:45;;;;;;;11.33;7.93;;;9.10;84.20;;;;;;5038888;28;20076;-75
2023/04/18 07:40:11;;;;;;;12.67;7.43;;;9.10;85.40;;;;;;5031184;28;20037;-75
2023/04/18 07:42:36;;;;;;;11.45;8.18;;;9.10;83.40;;;;;;5035031;28;20502;-75
2023/04/18 07:45:02;;;;;;;10.20;7.00;;;9.20;84.20;;;;;;5050024;28;20120;-75
2023/04/18 07:47:28;;;;;;;11.63;7.13;;;9.20;83.10;;;;;;5050485;28;20056;-74
2023/04/18 07:49:55;;;;;;;10.97;7.20;;;9.30;83.80;;;;;;5031476;28;20044;-75
2023/04/18 07:52:20;;;;;;;12.10;7.45;;;9.30;84.30;;;;;;5038491;28;20055;-73
2023/04/18 07:54:46;;;;;;;11.93;6.93;;;9.40;82.80;;;;;;5038657;28;20127;-74
2023/04/18 07:57:12;;;;;;;11.73;6.90;;;9.40;82.90;;;;;;5049847;28;20044;-75
2023/04/18 07:59:38;;;;;;;11.20;7.43;;;9.50;81.90;;;;;;5032627;28;20485;-74
2023/04/18 08:02:03;;;;;;;9.87;6.73;;;9.40;82.80;;;;;;5033393;28;20106;-74
2023/04/18 08:04:29;;;;;;;11.10;7.00;;;9.50;83.10;;;;;;5056303;28;20508;-75
2023/04/18 08:06:55;;;;;;;9.70;7.27;;;9.50;83.40;;;;;;5033951;28;20080;-75
2023/04/18 08:09:20;;;;;;;10.80;7.30;;;9.60;81.60;;;;;;5030603;28;20041;-74
2023/04/18 08:11:46;;;;;;;12.63;6.97;;;9.70;82.00;;;;;;5048878;28;20171;-75
2023/04/18 08:14:12;;;;;;;11.57;8.02;;;9.70;81.80;;;;;;5025913;28;20079;-74
2023/04/18 08:16:38;;;;;;;12.77;7.30;;;9.80;81.50;;;;;;5027573;28;20507;-74
2023/04/18 08:19:04;;;;;;;12.13;7.20;;;9.90;81.50;;;;;;5036755;28;20044;-74
2023/04/18 08:21:31;;;;;;;9.82;7.40;;;9.90;79.50;;;;;;5028588;28;20052;-74
2023/04/18 08:23:58;;;;;;;10.40;7.50;;;10.00;79.10;;;;;;5036451;28;20524;-73
2023/04/18 08:26:24;;;;;;;12.85;7.50;;;10.00;80.10;;;;;;5046340;28;20128;-73
2023/04/18 08:28:50;;;;;;;10.68;7.28;;;10.10;81.20;;;;;;5029852;28;20510;-73
2023/04/18 08:31:16;;;;;;;10.57;7.90;;;10.10;80.80;;;;;;5041433;28;20131;-73
2023/04/18 08:33:42;;;;;;;12.47;8.27;;;10.20;71.70;;;;;;5046650;28;20519;-74
2023/04/18 08:36:08;;;;;;;13.47;8.07;;;10.30;68.30;;;;;;5046562;28;20160;-74
2023/04/18 08:38:34;;;;;;;9.45;7.40;;;10.30;69.10;;;;;;5030234;28;20048;-74
2023/04/18 08:41:00;;;;;;;10.33;7.67;;;10.30;68.50;;;;;;5045177;28;20682;-74
2023/04/18 08:43:25;;;;;;;10.97;7.70;;;10.40;68.50;;;;;;5028162;28;20517;-73
2023/04/18 08:45:58;;;;;;;13.33;8.03;;;10.50;67.20;;;;;;5028584;28;20077;-74
2023/04/18 08:48:25;;;;;;;10.13;7.32;;;10.70;65.30;;;;;;5037702;28;20045;-74
2023/04/18 08:50:56;;;;;;;10.68;7.63;;;10.70;66.70;;;;;;5043415;28;20052;-74
2023/04/18 08:53:22;;;;;;;11.60;7.68;;;10.80;66.10;;;;;;5019786;28;20150;-74
2023/04/18 08:55:52;;;;;;;13.90;8.37;;;10.90;65.90;;;;;;5027790;28;20116;-74
2023/04/18 08:58:22;;;;;;;13.60;7.85;;;10.90;66.60;;;;;;5019238;28;20045;-74
2023/04/18 09:00:52;;;;;;;13.85;8.40;;;11.00;66.00;;;;;;5028793;28;20101;-74
2023/04/18 09:03:39;;;;;;;11.90;8.05;;;11.00;66.20;;;;;;5025997;28;20055;-74
2023/04/18 09:06:07;;;;;;;11.02;8.23;;;11.20;65.00;;;;;;5036371;28;20120;-74
2023/04/18 09:08:34;;;;;;;12.05;8.18;;;11.20;63.40;;;;;;5026682;28;20044;-74
2023/04/18 09:11:23;;;;;;;10.88;8.20;;;11.20;63.80;;;;;;5039280;28;20052;-74
2023/04/18 09:13:49;;;;;;;11.25;8.13;;;11.20;62.80;;;;;;5064090;28;20052;-74
2023/04/18 09:16:16;;;;;;;11.35;7.60;;;11.20;62.90;;;;;;5048980;28;20056;-74
2023/04/18 09:19:12;;;;;;;13.80;8.20;;;11.30;64.10;;;;;;5045432;28;20123;-74
2023/04/18 09:21:40;;;;;;;13.40;7.77;;;11.40;65.90;;;;;;5031169;28;20396;-74
2023/04/18 09:24:25;;;;;;;12.38;8.63;;;11.50;65.40;;;;;;5038625;28;20064;-74
2023/04/18 09:26:52;;;;;;;12.05;8.75;;;11.70;64.80;;;;;;5045773;28;20531;-74
2023/04/18 09:29:21;;;;;;;12.03;8.30;;;11.80;63.80;;;;;;5048760;28;20166;-74
2023/04/18 09:32:23;;;;;;;13.52;8.20;;;11.80;65.20;;;;;;5031952;28;20373;-74
2023/04/18 09:34:56;;;;;;;17.57;8.83;;;11.90;62.10;;;;;;5029777;28;20056;-74
2023/04/18 09:37:23;;;;;;;11.97;8.03;;;11.90;61.40;;;;;;5031953;28;20300;-74
2023/04/18 09:39:51;;;;;;;9.80;6.90;;;11.90;61.90;;;;;;5027620;28;20285;-74
2023/04/18 09:42:17;;;;;;;11.97;7.37;;;12.00;58.70;;;;;;5030922;28;20856;-74
2023/04/18 09:45:16;;;;;;;9.83;7.20;;;12.00;60.30;;;;;;5036567;28;20300;-74
2023/04/18 09:47:41;;;;;;;10.53;7.17;;;12.10;59.70;;;;;;4996511;28;20790;-74
2023/04/18 09:50:09;;;;;;;10.10;7.03;;;12.10;58.60;;;;;;5031538;28;20291;-74
2023/04/18 09:52:43;;;;;;;10.67;7.33;;;12.10;58.40;;;;;;5027507;28;20507;-74
2023/04/18 09:55:11;;;;;;;12.50;7.57;;;12.10;60.50;;;;;;5024963;28;20291;-74
2023/04/18 09:57:40;;;;;;;10.67;7.10;;;12.30;61.00;;;;;;5027798;28;20287;-74
2023/04/18 10:00:16;;;;;;;11.67;7.27;;;12.40;59.80;;;;;;5014109;28;20295;-74
2023/04/18 10:02:58;;;;;;;;;;;12.50;59.80;;;;;;5031519;28;20294;-75
2023/04/18 10:05:26;;;;;;;11.00;6.83;;;12.50;59.80;;;;;;5028370;28;20318;-74
2023/04/18 10:07:53;;;;;;;11.67;7.40;;;12.60;58.70;;;;;;5017571;28;20292;-74
2023/04/18 10:10:19;;;;;;;12.83;8.10;;;12.60;57.60;;;;;;5028937;28;20303;-74
2023/04/18 10:12:47;;;;;;;9.70;7.53;;;12.60;57.10;;;;;;5031050;28;20373;-74
2023/04/18 10:15:14;;;;;;;10.23;7.27;;;12.60;56.50;;;;;;5021416;28;20044;-74
2023/04/18 10:17:51;;;;;;;12.50;7.70;;;12.60;57.80;;;;;;5024043;28;20276;-75
2023/04/18 10:20:19;;;;;;;10.73;7.13;;;12.60;56.80;;;;;;5044637;28;20280;-75
2023/04/18 10:22:47;;;;;;;10.73;6.93;;;12.60;57.50;;;;;;5025636;28;20291;-75
2023/04/18 10:25:33;;;;;;;12.07;6.70;;;12.70;54.90;;;;;;5043766;28;20287;-74
2023/04/18 10:28:03;;;;;;;10.57;6.33;;;12.80;56.10;;;;;;5047511;28;20367;-74
2023/04/18 10:30:41;;;;;;;10.63;6.87;;;12.80;54.80;;;;;;5020308;28;20322;-74
2023/04/18 10:33:19;;;;;;;10.30;6.70;;;12.80;53.80;;;;;;5047426;28;20740;-74
2023/04/18 10:36:10;;;;;;;9.80;5.90;;;12.80;55.80;;;;;;5029449;28;20772;-74
2023/04/18 10:38:44;;;;;;;10.83;6.80;;;12.80;55.10;;;;;;5035709;28;20329;-74
2023/04/18 10:41:15;;;;;;;8.63;6.47;;;12.90;55.20;;;;;;5019845;28;20362;-75
2023/04/18 10:44:06;;;;;;;9.23;6.57;;;12.80;55.20;;;;;;5031500;28;20279;-74
2023/04/18 10:46:35;;;;;;;10.50;6.53;;;12.90;56.30;;;;;;5044300;28;20283;-75
2023/04/18 10:49:25;;;;;;;7.47;6.57;;;13.00;56.60;;;;;;5041061;28;20282;-75
2023/04/18 10:51:53;;;;;;;9.53;5.43;;;13.10;54.60;;;;;;5021572;28;20325;-75
2023/04/18 10:54:45;;;;;;;7.07;5.63;;;13.10;55.60;;;;;;5048792;28;20786;-75
2023/04/18 10:57:12;;;;;;;11.93;6.37;;;13.20;55.10;;;;;;5031450;28;20287;-75
2023/04/18 10:59:49;;;;;;;8.50;6.67;;;13.30;54.60;;;;;;5031866;28;20367;-75
2023/04/18 11:02:31;;;;;;;10.37;6.87;;;13.30;54.80;;;;;;5047749;28;20334;-76
2023/04/18 11:05:03;;;;;;;9.03;6.80;;;13.30;54.70;;;;;;5053325;28;20283;-76
2023/04/18 11:07:39;;;;;;;10.27;6.90;;;13.30;55.80;;;;;;5045897;28;20703;-75
2023/04/18 11:10:06;;;;;;;10.47;6.60;;;13.40;54.80;;;;;;5029573;28;20682;-75
2023/04/18 11:12:34;;;;;;;12.90;6.70;;;13.40;54.10;;;;;;5026444;28;20275;-76
2023/04/18 11:15:01;;;;;;;10.30;6.50;;;13.40;55.50;;;;;;5033632;28;20294;-75
2023/04/18 11:17:31;;;;;;;7.23;5.33;;;13.50;54.90;;;;;;5041497;28;20306;-76
2023/04/18 11:20:13;;;;;;;8.17;6.40;;;13.70;54.10;;;;;;5032538;28;20283;-76
2023/04/18 11:22:50;;;;;;;8.27;5.27;;;13.60;54.60;;;;;;5039352;28;20312;-76
2023/04/18 11:25:18;;;;;;;7.83;6.03;;;13.60;55.10;;;;;;5024508;28;20282;-76
2023/04/18 11:27:46;;;;;;;8.73;6.17;;;13.70;55.90;;;;;;5049911;28;20305;-75
2023/04/18 11:30:14;;;;;;;9.37;5.60;;;13.90;55.70;;;;;;5035025;28;20320;-75
2023/04/18 11:32:40;;;;;;;7.67;5.77;;;13.90;55.70;;;;;;5053397;28;20286;-75
2023/04/18 11:35:11;;;;;;;7.40;5.33;;;13.90;53.90;;;;;;5038490;28;20312;-75
2023/04/18 11:37:38;;;;;;;7.13;5.70;;;13.90;55.20;;;;;;5039980;28;20284;-75
2023/04/18 11:40:07;;;;;;;8.60;6.10;;;13.90;55.70;;;;;;5032861;28;20290;-75
2023/04/18 11:42:34;;;;;;;7.67;5.33;;;13.90;56.40;;;;;;5053069;28;20667;-76
2023/04/18 11:45:00;;;;;;;6.53;5.00;;;13.90;55.90;;;;;;5035776;28;20826;-76
2023/04/18 11:47:32;;;;;;;7.43;5.50;;;14.00;56.70;;;;;;5044231;28;20284;-75
2023/04/18 11:50:04;;;;;;;7.20;4.93;;;14.10;57.10;;;;;;5035393;28;20282;-75
2023/04/18 11:52:30;;;;;;;6.97;4.90;;;14.10;56.70;;;;;;5051208;28;20350;-76
2023/04/18 11:55:20;;;;;;;7.60;5.00;;;14.30;57.10;;;;;;5052236;28;20759;-75
2023/04/18 11:58:05;;;;;;;5.83;4.93;;;14.30;55.40;;;;;;5035075;28;20279;-75
2023/04/18 12:00:32;;;;;;;;;;;14.30;55.20;;;;;;5042500;28;20283;-75
2023/04/18 12:03:00;;;;;;;8.17;5.07;;;14.30;56.40;;;;;;5051400;28;20018;-76
2023/04/18 12:05:27;;;;;;;6.57;5.10;;;14.30;55.70;;;;;;5033584;28;20288;-76
2023/04/18 12:07:54;;;;;;;6.60;4.73;;;14.30;56.90;;;;;;5027117;28;20351;-75
2023/04/18 12:10:26;;;;;;;8.03;4.70;;;14.40;57.20;;;;;;5050247;28;20296;-74
2023/04/18 12:12:54;;;;;;;6.30;4.97;;;14.40;55.80;;;;;;5036154;28;20284;-75
2023/04/18 12:15:22;;;;;;;6.73;4.60;;;14.50;56.20;;;;;;5035922;28;20361;-75
2023/04/18 12:17:51;;;;;;;6.03;4.37;;;14.40;55.80;;;;;;5044132;28;20276;-76
2023/04/18 12:20:17;;;;;;;7.07;5.20;;;14.50;56.40;;;;;;5029997;28;20310;-76
2023/04/18 12:22:44;;;;;;;7.77;5.00;;;14.60;56.70;;;;;;5028681;28;20395;-76
2023/04/18 12:25:28;;;;;;;7.93;5.33;;;14.60;55.80;;;;;;5033802;28;20283;-76
2023/04/18 12:27:55;;;;;;;8.73;5.40;;;14.60;57.10;;;;;;5049998;28;20368;-75
2023/04/18 12:30:32;;;;;;;6.90;4.93;;;14.70;56.80;;;;;;5052213;28;20287;-76
2023/04/18 12:33:00;;;;;;;8.50;5.77;;;14.80;56.90;;;;;;5037357;28;20758;-76
2023/04/18 12:35:27;;;;;;;7.77;5.40;;;14.90;56.30;;;;;;5045963;28;20284;-75
2023/04/18 12:37:57;;;;;;;6.83;5.20;;;15.00;56.80;;;;;;5039928;28;20272;-75
2023/04/18 12:40:25;;;;;;;5.60;4.97;;;15.10;55.60;;;;;;5029018;28;20304;-76
2023/04/18 12:42:51;;;;;;;6.80;4.93;;;15.10;56.50;;;;;;5048058;28;20322;-75
2023/04/18 12:45:19;;;;;;;7.70;5.13;;;15.10;55.40;;;;;;5051747;28;20284;-75
2023/04/18 12:47:47;;;;;;;7.47;5.70;;;15.10;55.40;;;;;;5052049;28;20314;-76
2023/04/18 12:50:23;;;;;;;7.47;6.10;;;15.00;55.60;;;;;;5035544;28;20279;-75